createdAt,value
2022-09-29T00:02:21.323Z,97875.31
2022-09-29T00:04:47.855Z,97886.75
2022-09-29T00:07:14.404Z,97883.19
2022-09-29T00:09:40.882Z,97882.44
2022-09-29T00:12:07.449Z,97876.53
2022-09-29T00:14:33.932Z,97866.34
2022-09-29T00:17:00.408Z,97865.59
2022-09-29T00:19:28.752Z,97871.09
2022-09-29T00:21:55.253Z,97875.81
2022-09-29T00:24:21.744Z,97881.72
2022-09-29T00:26:48.297Z,97881.34
2022-09-29T00:29:14.795Z,97880.94
2022-09-29T00:31:41.298Z,97877.81
2022-09-29T00:34:08.162Z,97885.28
2022-09-29T00:36:34.678Z,97884.13
2022-09-29T00:39:01.226Z,97875.50
2022-09-29T00:41:33.763Z,97875.06
2022-09-29T00:44:14.537Z,97879.41
2022-09-29T00:46:46.418Z,97890.41
2022-09-29T00:49:34.800Z,97890.00
2022-09-29T00:52:13.153Z,97890.41
2022-09-29T00:54:47.683Z,97879.00
2022-09-29T00:57:18.962Z,97866.44
2022-09-29T00:59:59.836Z,97865.66
2022-09-29T01:02:27.299Z,97864.09
2022-09-29T01:04:55.810Z,97880.59
2022-09-29T01:07:25.349Z,97879.81
2022-09-29T01:09:54.202Z,97882.56
2022-09-29T01:12:21.130Z,97885.31
2022-09-29T01:14:48.379Z,97900.22
2022-09-29T01:17:16.024Z,97897.06
2022-09-29T01:20:04.283Z,97898.66
2022-09-29T01:22:55.818Z,97898.66
2022-09-29T01:25:59.586Z,97895.91
2022-09-29T01:28:58.141Z,97894.34
2022-09-29T01:31:39.225Z,97895.53
2022-09-29T01:34:28.921Z,97895.53
2022-09-29T01:37:14.424Z,97901.03
2022-09-29T01:39:51.635Z,97897.91
2022-09-29T01:42:24.181Z,97897.88
2022-09-29T01:45:00.143Z,97902.63
2022-09-29T01:47:42.676Z,97910.44
2022-09-29T01:50:23.454Z,97897.91
2022-09-29T01:52:55.671Z,97905.34
2022-09-29T01:55:27.317Z,97919.09
2022-09-29T01:58:05.584Z,97911.66
2022-09-29T02:00:39.109Z,97915.16
2022-09-29T02:03:14.942Z,97909.66
2022-09-29T02:05:45.332Z,97912.81
2022-09-29T02:08:17.025Z,97917.91
2022-09-29T02:10:52.970Z,97910.84
2022-09-29T02:13:21.606Z,97899.47
2022-09-29T02:15:52.519Z,97902.59
2022-09-29T02:18:23.277Z,97898.69
2022-09-29T02:20:50.946Z,97893.56
2022-09-29T02:23:18.159Z,97895.13
2022-09-29T02:25:48.036Z,97901.81
2022-09-29T02:28:16.359Z,97902.59
2022-09-29T02:30:43.260Z,97896.31
2022-09-29T02:33:23.683Z,97897.88
2022-09-29T02:36:17.927Z,97911.22
2022-09-29T02:38:47.298Z,97904.56
2022-09-29T02:41:43.539Z,97904.19
2022-09-29T02:44:47.840Z,97904.53
2022-09-29T02:47:43.538Z,97909.66
2022-09-29T02:50:26.944Z,97910.44
2022-09-29T02:53:26.111Z,97901.41
2022-09-29T02:56:04.724Z,97907.69
2022-09-29T02:58:38.880Z,97915.16
2022-09-29T03:01:07.422Z,97910.88
2022-09-29T03:03:34.561Z,97898.28
2022-09-29T03:06:01.503Z,97896.72
2022-09-29T03:08:28.034Z,97895.50
2022-09-29T03:10:54.502Z,97889.63
2022-09-29T03:13:21.094Z,97893.56
2022-09-29T03:15:47.568Z,97902.97
2022-09-29T03:18:14.580Z,97905.72
2022-09-29T03:20:41.070Z,97907.31
2022-09-29T03:23:07.648Z,97911.22
2022-09-29T03:25:34.747Z,97923.41
2022-09-29T03:28:01.500Z,97928.53
2022-09-29T03:30:28.084Z,97923.81
2022-09-29T03:32:54.589Z,97932.06
2022-09-29T03:35:21.133Z,97929.72
2022-09-29T03:37:47.708Z,97933.22
2022-09-29T03:40:14.858Z,97937.16
2022-09-29T03:42:41.439Z,97930.47
2022-09-29T03:45:08.264Z,97930.09
2022-09-29T03:47:34.780Z,97938.75
2022-09-29T03:50:01.289Z,97934.81
2022-09-29T03:52:27.803Z,97939.50
2022-09-29T03:54:54.279Z,97938.75
2022-09-29T03:57:20.837Z,97938.75
2022-09-29T03:59:47.400Z,97930.50
2022-09-29T04:02:14.394Z,97937.97
2022-09-29T04:04:41.304Z,97927.34
2022-09-29T04:07:07.884Z,97925.38
2022-09-29T04:09:34.381Z,97932.84
2022-09-29T04:12:01.284Z,97938.75
2022-09-29T04:14:27.781Z,97932.44
2022-09-29T04:16:54.291Z,97939.13
2022-09-29T04:19:21.029Z,97948.16
2022-09-29T04:21:47.581Z,97946.19
2022-09-29T04:24:14.248Z,97949.31
2022-09-29T04:26:40.831Z,97951.31
2022-09-29T04:29:07.957Z,97953.28
2022-09-29T04:31:34.553Z,97952.47
2022-09-29T04:34:01.162Z,97964.66
2022-09-29T04:36:27.660Z,97948.56
2022-09-29T04:38:54.496Z,97953.28
2022-09-29T04:41:21.676Z,97946.59
2022-09-29T04:43:48.319Z,97942.69
2022-09-29T04:46:15.418Z,97931.69
2022-09-29T04:48:42.065Z,97932.44
2022-09-29T04:51:10.610Z,97937.53
2022-09-29T04:53:37.605Z,97930.88
2022-09-29T04:56:08.325Z,97931.69
2022-09-29T04:58:35.354Z,97938.75
2022-09-29T05:01:06.909Z,97939.13
2022-09-29T05:03:33.441Z,97935.59
2022-09-29T05:06:00.105Z,97938.34
2022-09-29T05:08:26.880Z,97940.31
2022-09-29T05:10:53.425Z,97955.25
2022-09-29T05:13:19.905Z,97958.38
2022-09-29T05:15:46.455Z,97964.66
2022-09-29T05:18:12.973Z,97957.59
2022-09-29T05:20:47.089Z,97961.50
2022-09-29T05:23:21.758Z,97956.78
2022-09-29T05:25:48.481Z,97957.19
2022-09-29T05:28:15.363Z,97956.81
2022-09-29T05:30:42.560Z,97953.28
2022-09-29T05:33:09.138Z,97956.41
2022-09-29T05:35:35.657Z,97956.03
2022-09-29T05:38:02.423Z,97956.81
2022-09-29T05:40:28.954Z,97961.53
2022-09-29T05:42:55.527Z,97956.81
2022-09-29T05:45:22.040Z,97957.59
2022-09-29T05:47:48.630Z,97946.59
2022-09-29T05:50:15.236Z,97958.38
2022-09-29T05:52:42.088Z,97963.91
2022-09-29T05:55:11.050Z,97965.47
2022-09-29T05:57:37.902Z,97958.38
2022-09-29T06:00:06.227Z,97960.75
2022-09-29T06:02:34.153Z,97974.84
2022-09-29T06:05:00.851Z,97970.13
2022-09-29T06:07:27.391Z,97975.22
2022-09-29T06:09:53.864Z,97972.84
2022-09-29T06:12:21.869Z,97981.06
2022-09-29T06:14:48.509Z,97978.28
2022-09-29T06:17:15.069Z,97974.75
2022-09-29T06:19:44.632Z,97979.44
2022-09-29T06:22:11.593Z,97977.91
2022-09-29T06:24:38.123Z,97988.09
2022-09-29T06:27:04.614Z,97999.13
2022-09-29T06:29:31.169Z,97994.75
2022-09-29T06:31:57.712Z,97984.09
2022-09-29T06:34:24.540Z,97980.56
2022-09-29T06:37:09.402Z,97981.78
2022-09-29T06:39:37.332Z,97983.31
2022-09-29T06:42:03.973Z,97990.75
2022-09-29T06:44:30.824Z,97991.94
2022-09-29T06:46:58.120Z,97986.41
2022-09-29T06:49:25.351Z,97974.56
2022-09-29T06:51:51.949Z,97972.22
2022-09-29T06:54:21.345Z,97973.81
2022-09-29T06:56:49.254Z,97974.13
2022-09-29T06:59:16.417Z,97971.38
2022-09-29T07:01:43.841Z,97983.09
2022-09-29T07:04:10.449Z,97976.22
2022-09-29T07:06:37.070Z,97977.69
2022-09-29T07:09:03.666Z,97981.97
2022-09-29T07:11:30.183Z,97973.81
2022-09-29T07:13:56.743Z,97987.69
2022-09-29T07:16:24.327Z,97995.03
2022-09-29T07:18:51.857Z,97993.00
2022-09-29T07:21:19.510Z,97990.63
2022-09-29T07:23:47.435Z,97993.75
2022-09-29T07:26:16.629Z,97995.47
2022-09-29T07:28:44.010Z,97999.34
2022-09-29T07:31:15.468Z,98002.50
2022-09-29T07:33:47.523Z,98001.28
2022-09-29T07:36:15.793Z,98005.56
2022-09-29T07:38:45.059Z,98009.41
2022-09-29T07:41:11.955Z,98002.78
2022-09-29T07:43:39.487Z,98018.19
2022-09-29T07:46:07.399Z,98007.91
2022-09-29T07:48:35.022Z,98011.06
2022-09-29T07:51:06.397Z,98013.97
2022-09-29T07:53:33.958Z,98016.88
2022-09-29T07:56:20.303Z,98019.94
2022-09-29T07:58:49.911Z,98023.22
2022-09-29T08:01:17.449Z,98027.19
2022-09-29T08:03:49.415Z,98033.91
2022-09-29T08:06:16.095Z,98043.38
2022-09-29T08:08:54.851Z,98040.63
2022-09-29T08:11:31.596Z,98041.03
2022-09-29T08:13:58.853Z,98042.63
2022-09-29T08:16:26.019Z,98044.56
2022-09-29T08:18:52.621Z,98040.56
2022-09-29T08:21:19.302Z,98044.50
2022-09-29T08:23:45.846Z,98045.97
2022-09-29T08:26:15.106Z,98062.41
2022-09-29T08:28:43.027Z,98073.41
2022-09-29T08:31:21.360Z,98068.94
2022-09-29T08:33:52.669Z,98070.69
2022-09-29T08:36:20.283Z,98063.38
2022-09-29T08:38:52.353Z,98068.69
2022-09-29T08:41:43.104Z,98067.25
2022-09-29T08:44:39.266Z,98065.47
2022-09-29T08:47:28.761Z,98070.34
2022-09-29T08:50:22.624Z,98068.88
2022-09-29T08:52:54.810Z,98071.56
2022-09-29T08:55:34.678Z,98068.34
2022-09-29T08:58:02.270Z,98068.13
2022-09-29T09:01:04.255Z,98069.34
2022-09-29T09:04:04.378Z,98058.97
2022-09-29T09:06:55.715Z,98081.88
2022-09-29T09:09:41.763Z,98086.28
2022-09-29T09:12:20.395Z,98088.03
2022-09-29T09:14:58.715Z,98085.75
2022-09-29T09:17:49.759Z,98091.22
2022-09-29T09:20:36.698Z,98102.88
2022-09-29T09:23:55.512Z,98103.63
2022-09-29T09:26:46.723Z,98102.03
2022-09-29T09:29:33.839Z,98101.38
2022-09-29T09:32:10.903Z,98096.41
2022-09-29T09:34:45.422Z,98101.94
2022-09-29T09:37:18.282Z,98097.03
2022-09-29T09:39:52.646Z,98088.81
2022-09-29T09:42:30.428Z,98088.81
2022-09-29T09:45:23.420Z,98091.69
2022-09-29T09:48:31.940Z,98080.84
2022-09-29T09:51:01.582Z,98080.56
2022-09-29T09:53:41.389Z,98072.41
2022-09-29T09:56:18.627Z,98082.97
2022-09-29T09:58:51.513Z,98091.75
2022-09-29T10:01:18.241Z,98097.31
2022-09-29T10:03:44.778Z,98100.06
2022-09-29T10:06:11.327Z,98108.28
2022-09-29T10:08:41.466Z,98101.41
2022-09-29T10:11:30.724Z,98099.56
2022-09-29T10:14:19.616Z,98104.28
2022-09-29T10:16:56.234Z,98098.19
2022-09-29T10:19:43.911Z,98099.25
2022-09-29T10:22:15.007Z,98093.84
2022-09-29T10:24:41.612Z,98097.88
2022-09-29T10:27:08.329Z,98102.41
2022-09-29T10:29:41.560Z,98104.34
2022-09-29T10:32:38.998Z,98103.31
2022-09-29T10:35:16.568Z,98094.91
2022-09-29T10:37:47.634Z,98096.88
2022-09-29T10:40:20.898Z,98077.56
2022-09-29T10:42:50.244Z,98080.19
2022-09-29T10:45:22.799Z,98081.38
2022-09-29T10:48:16.283Z,98084.41
2022-09-29T10:50:52.659Z,98088.78
2022-09-29T10:53:29.660Z,98087.03
2022-09-29T10:55:59.269Z,98094.53
2022-09-29T10:58:52.716Z,98108.00
2022-09-29T11:01:22.537Z,98118.91
2022-09-29T11:04:03.288Z,98106.81
2022-09-29T11:06:35.698Z,98106.19
2022-09-29T11:09:04.184Z,98101.47
2022-09-29T11:11:36.330Z,98100.50
2022-09-29T11:14:03.590Z,98105.03
2022-09-29T11:16:35.921Z,98107.88
2022-09-29T11:19:11.304Z,98105.16
2022-09-29T11:21:49.868Z,98098.72
2022-09-29T11:24:22.272Z,98091.66
2022-09-29T11:27:06.741Z,98100.81
2022-09-29T11:30:03.870Z,98098.13
2022-09-29T11:32:44.302Z,98091.78
2022-09-29T11:35:13.865Z,98090.75
2022-09-29T11:37:59.059Z,98075.16
2022-09-29T11:40:38.833Z,98081.78
2022-09-29T11:43:40.100Z,98079.25
2022-09-29T11:46:26.611Z,98080.72
2022-09-29T11:49:00.356Z,98087.47
2022-09-29T11:51:56.064Z,98085.91
2022-09-29T11:54:37.811Z,98092.25
2022-09-29T11:57:09.282Z,98094.97
2022-09-29T11:59:50.933Z,98108.81
2022-09-29T12:02:20.223Z,98107.13
2022-09-29T12:05:07.821Z,98108.94
2022-09-29T12:07:58.064Z,98098.13
2022-09-29T12:10:40.077Z,98104.03
2022-09-29T12:13:25.527Z,98100.38
2022-09-29T12:15:58.522Z,98097.47
2022-09-29T12:18:31.708Z,98101.78
2022-09-29T12:21:00.994Z,98117.34
2022-09-29T12:23:30.810Z,98114.84
2022-09-29T12:26:20.004Z,98116.22
2022-09-29T12:29:04.504Z,98108.81
2022-09-29T12:31:36.492Z,98111.06
2022-09-29T12:34:13.705Z,98104.66
2022-09-29T12:37:05.901Z,98111.16
2022-09-29T12:39:43.144Z,98089.53
2022-09-29T12:42:18.518Z,98089.34
2022-09-29T12:44:50.706Z,98077.41
2022-09-29T12:47:36.168Z,98076.41
2022-09-29T12:50:11.598Z,98081.56
2022-09-29T12:52:46.940Z,98077.16
2022-09-29T12:55:29.965Z,98074.97
2022-09-29T12:58:00.370Z,98081.75
2022-09-29T13:00:32.546Z,98077.41
2022-09-29T13:03:26.772Z,98073.63
2022-09-29T13:06:08.964Z,98073.00
2022-09-29T13:09:01.657Z,98068.00
2022-09-29T13:11:57.242Z,98064.88
2022-09-29T13:15:13.193Z,98063.88
2022-09-29T13:17:48.439Z,98067.91
2022-09-29T13:20:53.000Z,98080.22
2022-09-29T13:23:37.426Z,98078.94
2022-09-29T13:26:13.408Z,98081.25
2022-09-29T13:28:46.925Z,98082.41
2022-09-29T13:31:18.078Z,98090.47
2022-09-29T13:33:54.067Z,98088.66
2022-09-29T13:36:29.468Z,98089.53
2022-09-29T13:38:59.994Z,98079.09
2022-09-29T13:41:39.595Z,98085.81
2022-09-29T13:44:22.528Z,98089.31
2022-09-29T13:46:50.005Z,98091.66
2022-09-29T13:49:30.342Z,98094.47
2022-09-29T13:51:57.956Z,98095.63
2022-09-29T13:54:27.995Z,98087.75
2022-09-29T13:57:12.617Z,98094.50
2022-09-29T13:59:41.416Z,98090.56
2022-09-29T14:02:20.309Z,98088.13
2022-09-29T14:04:49.928Z,98090.66
2022-09-29T14:07:36.731Z,98082.44
2022-09-29T14:10:32.345Z,98089.00
2022-09-29T14:13:05.724Z,98090.25
2022-09-29T14:15:35.141Z,98095.81
2022-09-29T14:18:07.033Z,98105.03
2022-09-29T14:20:35.027Z,98102.00
2022-09-29T14:23:04.220Z,98095.81
2022-09-29T14:25:49.335Z,98095.25
2022-09-29T14:28:39.305Z,98095.78
2022-09-29T14:31:20.721Z,98092.47
2022-09-29T14:33:49.969Z,98084.81
2022-09-29T14:36:20.971Z,98084.56
2022-09-29T14:39:14.445Z,98087.53
2022-09-29T14:41:43.997Z,98096.75
2022-09-29T14:44:16.640Z,98097.91
2022-09-29T14:47:22.105Z,98093.72
2022-09-29T14:50:19.272Z,98097.41
2022-09-29T14:52:57.594Z,98110.69
2022-09-29T14:55:40.778Z,98100.69
2022-09-29T14:58:16.308Z,98099.63
2022-09-29T15:01:11.001Z,98098.56
2022-09-29T15:04:15.640Z,98100.84
2022-09-29T15:06:50.694Z,98102.00
2022-09-29T15:09:21.128Z,98103.34
2022-09-29T15:11:53.943Z,98112.38
2022-09-29T15:14:28.952Z,98110.06
2022-09-29T15:17:29.843Z,98108.81
2022-09-29T15:20:18.349Z,98108.34
2022-09-29T15:22:59.055Z,98116.09
2022-09-29T15:25:29.508Z,98118.53
2022-09-29T15:28:04.488Z,98123.34
2022-09-29T15:30:32.311Z,98121.38
2022-09-29T15:33:20.151Z,98114.75
2022-09-29T15:35:52.313Z,98129.03
2022-09-29T15:38:24.694Z,98121.66
2022-09-29T15:40:56.902Z,98123.34
2022-09-29T15:43:29.010Z,98126.94
2022-09-29T15:46:02.739Z,98141.97
2022-09-29T15:48:31.022Z,98146.00
2022-09-29T15:50:58.441Z,98146.84
2022-09-29T15:53:27.635Z,98139.63
2022-09-29T15:55:55.629Z,98143.88
2022-09-29T15:58:36.945Z,98147.19
2022-09-29T16:01:08.661Z,98143.75
2022-09-29T16:03:50.863Z,98144.28
2022-09-29T16:06:23.647Z,98151.47
2022-09-29T16:08:55.450Z,98154.28
2022-09-29T16:11:36.896Z,98158.28
2022-09-29T16:14:12.098Z,98156.03
2022-09-29T16:16:44.988Z,98156.09
2022-09-29T16:19:26.699Z,98153.75
2022-09-29T16:21:59.667Z,98153.03
2022-09-29T16:24:32.147Z,98138.13
2022-09-29T16:26:59.665Z,98142.09
2022-09-29T16:29:37.001Z,98144.50
2022-09-29T16:32:38.399Z,98133.88
2022-09-29T16:35:27.354Z,98131.94
2022-09-29T16:37:53.860Z,98128.03
2022-09-29T16:40:24.931Z,98109.91
2022-09-29T16:42:53.434Z,98104.03
2022-09-29T16:45:24.150Z,98103.66
2022-09-29T16:47:51.596Z,98115.47
2022-09-29T16:50:19.915Z,98124.16
2022-09-29T16:52:49.163Z,98124.53
2022-09-29T16:55:27.517Z,98139.13
2022-09-29T16:57:59.930Z,98129.75
2022-09-29T17:00:26.751Z,98114.78
2022-09-29T17:02:57.769Z,98117.94
2022-09-29T17:05:25.541Z,98114.78
2022-09-29T17:08:01.000Z,98120.28
2022-09-29T17:10:27.930Z,98141.91
2022-09-29T17:12:55.320Z,98132.84
2022-09-29T17:15:23.135Z,98138.41
2022-09-29T17:17:50.766Z,98146.28
2022-09-29T17:20:20.382Z,98163.19
2022-09-29T17:22:49.054Z,98157.69
2022-09-29T17:25:15.616Z,98157.72
2022-09-29T17:28:03.473Z,98156.94
2022-09-29T17:30:30.211Z,98162.44
2022-09-29T17:32:58.240Z,98160.44
2022-09-29T17:35:37.722Z,98162.00
2022-09-29T17:38:07.567Z,98162.41
2022-09-29T17:40:55.511Z,98168.28
2022-09-29T17:43:23.979Z,98157.25
2022-09-29T17:45:52.080Z,98154.84
2022-09-29T17:48:20.072Z,98156.41
2022-09-29T17:50:49.159Z,98160.31
2022-09-29T17:53:16.770Z,98153.59
2022-09-29T17:55:46.209Z,98146.13
2022-09-29T17:58:16.146Z,98146.91
2022-09-29T18:00:46.456Z,98142.59
2022-09-29T18:03:13.381Z,98147.69
2022-09-29T18:05:41.546Z,98143.72
2022-09-29T18:08:14.616Z,98141.75
2022-09-29T18:10:45.076Z,98152.75
2022-09-29T18:13:12.154Z,98151.56
2022-09-29T18:15:39.305Z,98164.94
2022-09-29T18:18:07.972Z,98171.97
2022-09-29T18:20:40.187Z,98178.69
2022-09-29T18:23:06.718Z,98169.69
2022-09-29T18:25:34.428Z,98169.63
2022-09-29T18:28:02.414Z,98174.75
2022-09-29T18:30:32.234Z,98180.25
2022-09-29T18:33:00.247Z,98171.19
2022-09-29T18:35:34.742Z,98173.47
2022-09-29T18:38:02.036Z,98173.91
2022-09-29T18:40:30.239Z,98180.59
2022-09-29T18:42:58.803Z,98176.25
2022-09-29T18:45:29.444Z,98170.75
2022-09-29T18:47:58.786Z,98171.16
2022-09-29T18:50:27.976Z,98170.72
2022-09-29T18:52:54.718Z,98181.31
2022-09-29T18:55:25.833Z,98184.47
2022-09-29T18:57:54.178Z,98187.66
2022-09-29T19:00:23.492Z,98197.06
2022-09-29T19:02:51.110Z,98193.50
2022-09-29T19:05:22.475Z,98197.81
2022-09-29T19:07:52.781Z,98199.38
2022-09-29T19:10:20.432Z,98194.59
2022-09-29T19:12:48.556Z,98193.00
2022-09-29T19:15:18.108Z,98204.00
2022-09-29T19:17:45.296Z,98209.53
2022-09-29T19:20:13.665Z,98212.25
2022-09-29T19:22:42.670Z,98220.47
2022-09-29T19:25:20.626Z,98218.09
2022-09-29T19:27:47.383Z,98218.09
2022-09-29T19:30:16.577Z,98220.88
2022-09-29T19:32:43.666Z,98222.84
2022-09-29T19:35:15.066Z,98227.19
2022-09-29T19:37:41.892Z,98230.72
2022-09-29T19:40:11.258Z,98235.84
2022-09-29T19:42:37.776Z,98229.97
2022-09-29T19:45:07.954Z,98245.66
2022-09-29T19:47:35.446Z,98238.19
2022-09-29T19:50:20.958Z,98240.16
2022-09-29T19:52:47.437Z,98241.72
2022-09-29T19:55:15.311Z,98247.25
2022-09-29T19:57:42.534Z,98255.88
2022-09-29T20:00:11.880Z,98269.63
2022-09-29T20:02:38.507Z,98262.53
2022-09-29T20:05:05.734Z,98272.38
2022-09-29T20:07:32.342Z,98270.41
2022-09-29T20:09:58.874Z,98270.06
2022-09-29T20:12:26.248Z,98273.66
2022-09-29T20:14:52.858Z,98280.38
2022-09-29T20:17:19.497Z,98272.56
2022-09-29T20:19:47.752Z,98268.66
2022-09-29T20:22:15.508Z,98274.16
2022-09-29T20:24:41.996Z,98274.19
2022-09-29T20:27:08.479Z,98277.78
2022-09-29T20:29:35.227Z,98284.47
2022-09-29T20:32:01.752Z,98276.63
2022-09-29T20:34:28.330Z,98284.09
2022-09-29T20:36:55.388Z,98272.34
2022-09-29T20:39:22.381Z,98276.72
2022-09-29T20:41:50.077Z,98276.38
2022-09-29T20:44:19.968Z,98285.84
2022-09-29T20:46:46.701Z,98283.88
2022-09-29T20:49:14.133Z,98288.25
2022-09-29T20:51:40.684Z,98288.28
2022-09-29T20:54:07.316Z,98287.88
2022-09-29T20:56:41.343Z,98284.78
2022-09-29T20:59:14.055Z,98285.56
2022-09-29T21:01:41.173Z,98287.16
2022-09-29T21:04:14.789Z,98291.88
2022-09-29T21:06:43.768Z,98289.13
2022-09-29T21:09:15.900Z,98287.16
2022-09-29T21:11:43.602Z,98282.44
2022-09-29T21:14:18.507Z,98282.06
2022-09-29T21:16:48.598Z,98284.03
2022-09-29T21:19:15.235Z,98282.47
2022-09-29T21:21:43.839Z,98283.25
2022-09-29T21:24:12.308Z,98282.47
2022-09-29T21:26:39.631Z,98280.91
2022-09-29T21:29:08.184Z,98281.69
2022-09-29T21:31:35.594Z,98271.06
2022-09-29T21:34:05.474Z,98276.16
2022-09-29T21:36:34.577Z,98278.91
2022-09-29T21:39:06.301Z,98277.75
2022-09-29T21:41:37.595Z,98282.47
2022-09-29T21:44:11.378Z,98269.47
2022-09-29T21:46:39.002Z,98275.00
2022-09-29T21:49:08.302Z,98272.63
2022-09-29T21:51:46.977Z,98268.28
2022-09-29T21:54:16.407Z,98272.22
2022-09-29T21:56:44.675Z,98268.28
2022-09-29T21:59:12.874Z,98271.81
2022-09-29T22:01:40.307Z,98267.50
2022-09-29T22:04:08.307Z,98258.47
2022-09-29T22:06:37.255Z,98265.53
2022-09-29T22:09:05.187Z,98264.38
2022-09-29T22:11:33.883Z,98268.28
2022-09-29T22:14:01.753Z,98267.91
2022-09-29T22:16:30.896Z,98277.38
2022-09-29T22:19:33.438Z,98269.88
2022-09-29T22:21:45.997Z,98258.47
2022-09-29T22:24:12.827Z,98263.97
2022-09-29T22:26:40.529Z,98280.50
2022-09-29T22:29:07.503Z,98284.84
2022-09-29T22:31:34.553Z,98284.84
2022-09-29T22:34:04.271Z,98284.84
2022-09-29T22:36:32.987Z,98262.81
2022-09-29T22:38:59.974Z,98251.78
2022-09-29T22:41:26.475Z,98246.66
2022-09-29T22:43:54.749Z,98252.53
2022-09-29T22:46:22.916Z,98254.09
2022-09-29T22:48:49.925Z,98263.56
2022-09-29T22:51:16.579Z,98271.41
2022-09-29T22:53:43.155Z,98273.78
2022-09-29T22:56:12.902Z,98277.28
2022-09-29T22:58:41.751Z,98281.66
2022-09-29T23:01:15.317Z,98283.25
2022-09-29T23:03:42.676Z,98284.81
2022-09-29T23:06:10.098Z,98287.56
2022-09-29T23:08:37.284Z,98284.03
2022-09-29T23:11:05.551Z,98286.41
2022-09-29T23:13:34.303Z,98288.75
2022-09-29T23:16:05.240Z,98298.22
2022-09-29T23:18:34.807Z,98292.31
2022-09-29T23:21:04.671Z,98293.50
2022-09-29T23:23:32.231Z,98308.84
2022-09-29T23:26:00.314Z,98308.47
2022-09-29T23:28:27.621Z,98310.44
2022-09-29T23:30:55.030Z,98315.56
2022-09-29T23:33:22.045Z,98310.81
2022-09-29T23:35:48.755Z,98314.75
2022-09-29T23:38:34.122Z,98312.03
2022-09-29T23:41:00.947Z,98298.63
2022-09-29T23:43:27.451Z,98295.09
2022-09-29T23:45:53.979Z,98291.16
2022-09-29T23:48:22.325Z,98293.91
2022-09-29T23:50:48.973Z,98290.38
2022-09-29T23:53:15.525Z,98289.56
2022-09-29T23:55:42.077Z,98289.56
2022-09-29T23:58:08.615Z,98294.31
